Jackson Evers International Airport
KJAN : now visible

Aeroporto :











RITROVATECI SU...

 
LOGIN :

Iscrizione | Disclaimer

   EN    FR    IT 

 









Sommario :    VFR   VFR Marginale   IFR   IFR Intensivo   IFR Molto Intensivo
Visibilità : 
Base nubi : 
>= 8 km
>= 3000ft
5 / 8 km
1000 / 3000 ft
1500m / 5 km
500 / 1000 ft
800 / 1500m
200 / 500 ft
< 800m
< 200 ft
Simboli :   Temporali  Nebbia  Neve Forte  Precipitazioni Forti  Vento > 20 kt






- Altitudine del aeroporto : 346 ft
- Codice IATA : JAN


KJAN - Jackson Evers International

ULTIMO METAR :
  • 201154Z 02007KT 4SM RA BR BKN004 OVC032 09/08 A3017 RMK AO2 SLP216 P0034 60180 70219 T00890078 10089 20083 50017

METARs OBSOLETI :
  • 201103Z AUTO 36006KT 2 1/2SM +RA BR BKN005 OVC027 09/07 A3015 RMK AO2 P0005 T00890072
  • 201054Z AUTO 01006KT 3SM RA BR SCT005 BKN029 OVC041 09/07 A3014 RMK AO2 WSHFT 1005 SLP204 P0039 T00890072
  • 201032Z AUTO 01009KT 2SM +RA BR SCT005 BKN028 OVC039 09/07 A3014 RMK AO2 WSHFT 1005 P0023 T00890072
  • 201017Z AUTO 01011G19KT 3SM +RA BR BKN005 OVC037 09/07 A3015 RMK AO2 P0005 T00890072
  • 201002Z AUTO 04008KT 3SM -RA BR BKN004 BKN017 OVC039 09/07 A3011 RMK AO2 P0002 T00890072
  • 200946Z AUTO 03006KT 5SM -RA BR FEW004 SCT017 OVC044 09/07 A3012 RMK AO2 P0027 T00890072
  • 200938Z AUTO 01008KT 2 1/2SM RA BR SCT004 BKN039 OVC049 09/07 A3013 RMK AO2 P0026 T00890072
  • 200927Z AUTO 01008KT 2 1/2SM RA BR BKN005 BKN009 OVC049 09/07 A3014 RMK AO2 P0019 T00890072
  • 200922Z AUTO 35004KT 3SM RA BR SCT005 BKN026 OVC049 08/07 A3015 RMK AO2 P0018 T00830072
  • 200854Z AUTO 01005KT 2SM +RA BR BKN005 OVC014 09/07 A3015 RMK AO2 SLP209 P0046 60079 T00890072 56023

TAF KJAN
Valido dal 20 a 11 ore il 21 a 12 ore UTC


201126Z 2011/2112 35007KT 3SM RA BR BKN006 OVC010
FM201500 36017G26KT 4SM -RA BR OVC007
FM202200 36016G25KT 6SM -RA BR BKN007 OVC012
FM210000 35015G22KT P6SM OVC015
FM210300 36015G21KT P6SM BKN025
FM210600 36014G20KT P6SM SKC



MetMap, La meteo Aeronautica in un colpo d'occhio ! - Copyright ORBIFLY Dicembre 2007 - Disclaimer

ORBIFLY MET'MAP TEAM :

Programmazione e sviluppo : Alexandra Zaïnal
Concezione : Baudouin d'Aumeries
Aiuto per la programmazione : Marc-Olivier Méhu
Supporto tecnico e logistico : Manuel Goepfert
Aiuto per la traduzione : Arnaldo La Scala

Contatto : metmap@orbifly.com




FONTI E CREDITI :

   NOAA       Earth
Advisory